Terminal Aerodrome Forecast
Issued by NWS

Home | Current Version | Previous Version | Text Only | Print | Product List | Glossary On
Versions: 1 2 3 4 5 6 7 8 9 10 11 12 13 14 15 16 17 18 19 20 21
209
FTUS43 KGRR 220952 AAA
TAFJXN
TAF AMD
KJXN 220952Z 2210/2306 10005KT 2SM -SHRA BR OVC003
     FM221800 17010KT 1 1/2SM -RA BR OVC004
     FM230000 17008KT 2SM BR VCSH OVC003=

USA.gov is the U.S. government's official web portal to all federal, state and local government web resources and services.